KCIU

Chippewa County International Airport

Sault Ste Marie, Michigan, USA
METAR KCIU 201505Z AUTO 12014KT 1 1/2SM UP BR OVC003 M05/M06 A2987 RMK AO2 P0000 FZRANO
Observed Flight Rules
Feb-20 @ 15:05 UTC (2 hours ago) Instrument Flight Rules
Wind Visibility Clouds Conditions
120° at 14 knots 1 1/2 miles
  • Overcast at 300' AGL
  • Mist
  • Unknown precipitation
Temperatures Readings Precipitation
Current -5°C / 23°F
Dewpoint -6°C / 21°F
Humidity 93%
Altimeter 29.87" Hg
Pressure 1012 hPa
Elevation 244
Current Rain 0.005
METAR KCIU 201505Z AUTO 12014KT 1 1/2SM UP BR OVC003 M05/M06 A2987 RMK AO2 P0000 FZRANO
Observed Flight Rules
Feb-20 @ 15:05 UTC
(2 hours ago)
LIFR
Wind Visibility
120° at 14 knots 1 1/2 miles
Clouds
  • Overcast at 300' AGL
Conditions
  • Mist
  • Unknown precipitation
Temperature Dewpoint
-5°C / 23°F -6°C / 21°F
Humidity Altimeter Pressure
93% 29.87" Hg 1012 hPa
Current Rain
0.005